Time;durP1;ratioP1;P1;durP2;ratioP2;P2;SDS_P1;SDS_P2;PMS_P1;PMS_P2;Temp;Humidity;BMP_temperature;BMP_pressure;BME280_temperature;BME280_humidity;BME280_pressure;Samples;Min_cycle;Max_cycle;Signal;HPM_P1;HPM_P2
2021/08/13 00:01:34;;;;;;;;;9.67;8.00;;;;;23.45;54.99;101766.47;5073857;28;45314;-89
2021/08/13 00:03:59;;;;;;;;;8.67;8.67;;;;;23.52;54.73;101783.28;5082607;28;44807;-89
2021/08/13 00:06:24;;;;;;;;;8.00;7.00;;;;;23.41;54.89;101772.75;5081138;28;44843;-87
2021/08/13 00:08:50;;;;;;;;;13.33;10.67;;;;;23.42;54.96;101779.00;5081888;28;45355;-86
2021/08/13 00:11:15;;;;;;;;;10.00;8.67;;;;;23.42;54.85;101789.72;5082173;28;44634;-88
2021/08/13 00:13:40;;;;;;;;;11.67;11.00;;;;;23.32;54.68;101779.19;5082180;28;44764;-88
2021/08/13 00:16:06;;;;;;;;;9.00;9.00;;;;;23.24;55.06;101765.94;5082873;28;44708;-87
2021/08/13 00:18:31;;;;;;;;;12.67;9.33;;;;;23.22;54.95;101773.13;5081276;28;44900;-88
2021/08/13 00:20:57;;;;;;;;;11.33;11.33;;;;;23.27;54.93;101788.25;5080311;28;44713;-89
2021/08/13 00:23:22;;;;;;;;;12.00;11.00;;;;;23.21;54.49;101786.56;5067871;28;44764;-87
2021/08/13 00:25:47;;;;;;;;;8.00;8.00;;;;;23.16;54.91;101783.94;5080084;28;44807;-90
2021/08/13 00:28:13;;;;;;;;;10.00;10.00;;;;;23.11;54.41;101786.75;5077968;28;46294;-88
2021/08/13 00:30:38;;;;;;;;;9.67;9.67;;;;;23.13;54.61;101794.75;5079991;28;45416;-89
2021/08/13 00:33:03;;;;;;;;;8.00;8.00;;;;;23.00;54.81;101778.00;5080825;28;44732;-88
2021/08/13 00:35:29;;;;;;;;;10.00;9.33;;;;;22.98;54.92;101801.28;5081989;28;44813;-89
2021/08/13 00:37:54;;;;;;;;;12.67;8.00;;;;;22.97;54.82;101797.69;5080170;28;46442;-89
2021/08/13 00:40:20;;;;;;;;;11.33;10.67;;;;;22.97;54.71;101802.19;5079118;28;45370;-86
2021/08/13 00:42:45;;;;;;;;;9.67;9.00;;;;;22.94;54.44;101797.78;5080419;28;45256;-86
2021/08/13 00:45:11;;;;;;;;;9.67;8.00;;;;;22.82;54.60;101773.88;5081216;28;44757;-85
2021/08/13 00:47:36;;;;;;;;;12.00;10.00;;;;;22.90;54.61;101794.28;5079413;28;48346;-89
2021/08/13 00:50:04;;;;;;;;;11.67;11.00;;;;;22.86;54.68;101797.03;5079827;28;45320;-87
2021/08/13 00:52:30;;;;;;;;;12.67;11.00;;;;;22.79;54.74;101789.09;5081492;28;45241;-87
2021/08/13 00:54:56;;;;;;;;;10.00;7.67;;;;;22.82;54.63;101811.38;5075769;28;45287;-88
2021/08/13 00:57:21;;;;;;;;;11.00;9.00;;;;;22.75;54.90;101807.94;5064900;28;45486;-87
2021/08/13 00:59:47;;;;;;;;;11.33;10.67;;;;;22.72;54.70;101803.50;5076065;28;45299;-89
2021/08/13 01:02:13;;;;;;;;;10.00;9.00;;;;;22.73;54.83;101807.97;5060990;28;45382;-88
2021/08/13 01:04:38;;;;;;;;;10.00;9.00;;;;;22.72;55.38;101805.28;5059524;28;45355;-89
2021/08/13 01:07:07;;;;;;;;;12.33;10.00;;;;;22.67;55.42;101797.34;5059970;28;45420;-88
2021/08/13 01:09:35;;;;;;;;;8.00;8.00;;;;;22.65;55.28;101804.50;5060423;28;45358;-87
2021/08/13 01:12:39;;;;;;;;;11.00;8.67;;;;;22.59;55.18;101785.84;5061632;28;45244;-89
2021/08/13 01:15:11;;;;;;;;;8.67;7.67;;;;;22.63;55.00;101800.94;5064237;28;45228;-88
2021/08/13 01:17:46;;;;;;;;;13.00;10.67;;;;;22.59;55.51;101800.09;5065152;28;46751;-90
2021/08/13 01:20:25;;;;;;;;;11.33;9.00;;;;;22.59;55.36;101799.22;5062733;28;45438;-90
2021/08/13 01:22:59;;;;;;;;;10.00;9.00;;;;;22.56;55.58;101803.72;5061982;28;45401;-89
2021/08/13 01:25:31;;;;;;;;;9.33;8.67;;;;;22.49;55.98;101804.72;5061501;28;45363;-90
2021/08/13 01:28:02;;;;;;;;;11.00;10.00;;;;;22.44;56.22;101799.44;5061536;28;45674;-90
2021/08/13 01:30:29;;;;;;;;;12.00;10.00;;;;;22.44;56.23;101795.88;5061321;28;45343;-91
2021/08/13 01:33:00;;;;;;;;;11.67;10.00;;;;;22.43;56.55;101789.63;5061812;28;45425;-88
2021/08/13 01:35:31;;;;;;;;;10.00;10.00;;;;;22.33;56.49;101778.19;5061572;28;45331;-91
2021/08/13 01:38:06;;;;;;;;;12.00;11.00;;;;;22.42;56.32;101793.22;5061368;28;46043;-91
2021/08/13 01:40:33;;;;;;;;;11.00;10.00;;;;;22.32;56.24;101783.56;5059382;28;45325;-90
2021/08/13 01:42:59;;;;;;;;;12.00;10.00;;;;;22.36;56.68;101796.00;5061215;28;45173;-90
2021/08/13 01:45:31;;;;;;;;;13.33;9.33;;;;;22.30;56.27;101791.63;5061396;28;45455;-88
2021/08/13 01:47:59;;;;;;;;;11.33;10.33;;;;;22.31;56.20;101800.53;5060590;28;46537;-89
2021/08/13 01:50:24;;;;;;;;;9.33;8.33;;;;;22.20;56.24;101785.53;5059373;28;45272;-88
2021/08/13 01:52:53;;;;;;;;;10.00;10.00;;;;;22.21;56.66;101786.38;5059205;28;45528;-90
2021/08/13 01:55:19;;;;;;;;;11.33;10.00;;;;;22.23;56.45;101800.63;5060902;28;45309;-87
2021/08/13 01:57:45;;;;;;;;;9.33;9.33;;;;;22.10;56.76;101784.75;5058514;28;46046;-89
2021/08/13 02:00:16;;;;;;;;;14.67;11.00;;;;;22.11;56.71;101793.69;5060416;28;45332;-88
2021/08/13 02:02:43;;;;;;;;;12.00;11.00;;;;;22.14;56.67;101792.75;5060156;28;45453;-87
2021/08/13 02:05:09;;;;;;;;;11.00;11.00;;;;;22.12;56.78;101792.78;5060353;28;45417;-86
2021/08/13 02:07:39;;;;;;;;;13.00;8.00;;;;;22.10;56.84;101792.78;5060223;28;46395;-88
2021/08/13 02:10:07;;;;;;;;;11.33;8.33;;;;;22.01;56.63;101790.25;5061126;28;45244;-87
2021/08/13 02:12:33;;;;;;;;;12.33;9.33;;;;;22.08;56.73;101807.13;5060489;28;45401;-88
2021/08/13 02:14:59;;;;;;;;;11.00;10.00;;;;;21.98;56.85;101790.28;5060323;28;45282;-89
2021/08/13 02:17:29;;;;;;;;;10.00;9.33;;;;;21.96;56.87;101794.78;5059451;28;46165;-87
2021/08/13 02:20:07;;;;;;;;;11.33;9.67;;;;;22.02;56.68;101805.41;5058127;28;45323;-90
2021/08/13 02:22:33;;;;;;;;;11.00;10.67;;;;;21.95;56.67;101791.22;5058017;28;45314;-88
2021/08/13 02:24:58;;;;;;;;;10.00;9.00;;;;;21.98;56.77;101787.59;5057418;28;45457;-87
2021/08/13 02:27:26;;;;;;;;;14.33;11.33;;;;;21.91;57.05;101780.59;5057971;28;47360;-88
2021/08/13 02:29:52;;;;;;;;;12.00;10.67;;;;;21.97;56.65;101796.56;5059472;28;45517;-86
2021/08/13 02:32:17;;;;;;;;;14.00;11.00;;;;;21.96;56.52;101797.44;5059695;28;45315;-89
2021/08/13 02:34:44;;;;;;;;;12.33;10.33;;;;;21.85;56.86;101781.53;5059784;28;45372;-88
2021/08/13 02:37:36;;;;;;;;;11.67;10.67;;;;;21.92;56.95;101803.75;5059878;28;45462;-87
2021/08/13 02:40:12;;;;;;;;;13.33;11.67;;;;;21.89;57.01;101801.13;5057644;28;45380;-86
2021/08/13 02:42:43;;;;;;;;;13.00;10.33;;;;;21.86;56.99;101799.38;5059586;28;45385;-87
2021/08/13 02:45:10;;;;;;;;;10.33;10.00;;;;;21.78;57.21;101780.72;5058261;28;45604;-87
2021/08/13 02:47:36;;;;;;;;;11.67;9.00;;;;;21.80;57.05;101788.72;5058839;28;45797;-87
2021/08/13 02:50:06;;;;;;;;;12.00;9.00;;;;;21.78;57.26;101787.84;5057829;28;45514;-87
2021/08/13 02:52:46;;;;;;;;;11.00;8.00;;;;;21.81;57.12;101807.41;5058435;28;45276;-87
2021/08/13 02:55:16;;;;;;;;;12.33;11.00;;;;;21.77;56.96;101811.03;5060340;28;45437;-87
2021/08/13 02:57:43;;;;;;;;;13.67;12.33;;;;;21.76;57.20;101809.28;5066039;28;46316;-87
2021/08/13 03:00:09;;;;;;;;;13.67;10.67;;;;;21.66;57.21;101795.13;5061294;28;45332;-89
2021/08/13 03:02:36;;;;;;;;;18.00;10.67;;;;;21.62;57.08;101791.59;5060037;28;45429;-88
2021/08/13 03:05:04;;;;;;;;;10.33;10.33;;;;;21.61;57.23;101794.31;5063024;28;45424;-87
2021/08/13 03:07:30;;;;;;;;;8.67;8.00;;;;;21.57;57.57;101809.50;5080691;28;45282;-90
2021/08/13 03:09:56;;;;;;;;;13.67;10.67;;;;;21.56;57.53;101804.16;5060660;28;45243;-89
2021/08/13 03:12:23;;;;;;;;;8.33;8.33;;;;;21.52;57.79;101800.63;5065682;28;45382;-91
2021/08/13 03:14:49;;;;;;;;;11.33;9.33;;;;;21.56;57.76;101815.75;5081580;27;45365;-88
2021/08/13 03:17:16;;;;;;;;;12.00;10.67;;;;;21.57;57.27;101817.53;5084233;28;45555;-88
2021/08/13 03:19:42;;;;;;;;;14.00;12.00;;;;;21.55;57.70;101816.66;5084594;28;44914;-88
2021/08/13 03:22:08;;;;;;;;;7.33;7.33;;;;;21.54;57.60;101814.88;5085041;28;44701;-90
2021/08/13 03:24:34;;;;;;;;;8.67;8.67;;;;;21.52;57.45;101801.53;5086425;27;44662;-88
2021/08/13 03:27:01;;;;;;;;;10.00;10.00;;;;;21.50;57.81;101795.31;5085324;28;45606;-86
2021/08/13 03:29:26;;;;;;;;;9.33;9.33;;;;;21.47;57.43;101802.50;5084656;27;45193;-88
2021/08/13 03:31:56;;;;;;;;;10.67;10.67;;;;;21.52;57.76;101812.22;5086250;27;44968;-84
2021/08/13 03:34:21;;;;;;;;;12.00;10.33;;;;;21.50;57.81;101813.16;5085394;27;44669;-87
2021/08/13 03:36:47;;;;;;;;;14.33;10.67;;;;;21.44;57.71;101808.75;5084330;27;45485;-87
2021/08/13 03:39:12;;;;;;;;;12.00;8.67;;;;;21.48;58.11;101814.94;5073534;27;45170;-91
2021/08/13 03:41:38;;;;;;;;;13.67;8.00;;;;;21.39;58.03;101794.53;5060515;28;45369;-89
2021/08/13 03:44:04;;;;;;;;;9.67;8.67;;;;;21.45;57.82;101812.34;5059995;28;45628;-88
2021/08/13 03:46:30;;;;;;;;;13.67;10.33;;;;;21.44;57.78;101802.53;5062243;28;46450;-89
2021/08/13 03:48:55;;;;;;;;;10.00;9.00;;;;;21.40;57.94;101807.03;5061328;28;45307;-89
2021/08/13 03:51:21;;;;;;;;;9.33;8.33;;;;;21.32;57.61;101801.72;5060758;28;45294;-89
2021/08/13 03:53:46;;;;;;;;;8.33;8.33;;;;;21.28;57.79;101792.88;5059594;28;45417;-91
2021/08/13 03:56:12;;;;;;;;;8.00;7.33;;;;;21.27;57.67;101804.47;5060469;28;45444;-87
2021/08/13 03:58:37;;;;;;;;;11.00;10.00;;;;;21.28;57.83;101816.03;5060370;28;45382;-89
2021/08/13 04:01:05;;;;;;;;;10.67;9.00;;;;;21.27;57.78;101816.97;5068329;28;45245;-87
2021/08/13 04:03:31;;;;;;;;;11.33;10.67;;;;;21.16;57.84;101803.69;5062440;28;45295;-90
2021/08/13 04:05:56;;;;;;;;;11.33;9.67;;;;;21.22;58.11;101818.78;5061459;28;45467;-87
2021/08/13 04:08:22;;;;;;;;;9.33;7.33;;;;;21.19;57.98;101830.41;5059891;28;45319;-88
2021/08/13 04:10:47;;;;;;;;;11.00;7.67;;;;;21.10;57.75;101815.34;5058965;28;45453;-89
2021/08/13 04:13:13;;;;;;;;;8.67;8.00;;;;;21.10;57.60;101819.78;5058895;28;45431;-88
2021/08/13 04:15:39;;;;;;;;;7.00;7.00;;;;;21.13;57.89;101841.16;5058980;28;45419;-88
2021/08/13 04:18:05;;;;;;;;;10.67;8.33;;;;;21.10;57.71;101835.84;5057947;28;45492;-90
2021/08/13 04:20:30;;;;;;;;;7.67;7.67;;;;;21.12;57.57;101844.72;5058572;28;45505;-89
2021/08/13 04:22:56;;;;;;;;;9.00;9.00;;;;;21.03;57.92;101830.53;5059317;28;45224;-87
2021/08/13 04:25:21;;;;;;;;;7.00;6.00;;;;;21.03;57.30;101833.22;5058761;28;45401;-88
2021/08/13 04:27:46;;;;;;;;;10.00;8.00;;;;;20.97;57.26;101825.22;5058777;28;45549;-88
2021/08/13 04:30:13;;;;;;;;;6.33;5.00;;;;;20.99;57.22;101836.81;5058864;28;45324;-90
2021/08/13 04:32:40;;;;;;;;;9.00;9.00;;;;;20.99;57.46;101839.50;5058583;28;45363;-87
2021/08/13 04:35:06;;;;;;;;;7.00;6.00;;;;;20.96;57.58;101838.59;5056446;28;46294;-89
2021/08/13 04:37:32;;;;;;;;;7.00;6.67;;;;;20.98;57.40;101836.84;5058196;28;45321;-90
2021/08/13 04:39:57;;;;;;;;;5.67;5.00;;;;;20.88;57.24;101819.94;5059018;28;45284;-89
2021/08/13 04:42:23;;;;;;;;;7.00;6.00;;;;;20.94;57.32;101835.94;5059289;28;45375;-90
2021/08/13 04:44:48;;;;;;;;;8.33;8.00;;;;;20.85;57.29;101826.22;5059135;28;46312;-89
2021/08/13 04:47:14;;;;;;;;;6.00;6.00;;;;;20.88;57.09;101836.88;5059026;28;45298;-89
2021/08/13 04:49:39;;;;;;;;;8.00;6.33;;;;;20.91;57.04;101849.34;5057992;28;45377;-89
2021/08/13 04:52:05;;;;;;;;;6.67;5.00;;;;;20.80;57.17;101842.28;5059102;28;45232;-88
2021/08/13 04:54:31;;;;;;;;;6.67;6.67;;;;;20.80;56.68;101838.72;5058726;28;45376;-89
2021/08/13 04:56:56;;;;;;;;;10.67;7.00;;;;;20.84;57.37;101853.84;5058647;28;45233;-88
2021/08/13 04:59:22;;;;;;;;;6.00;6.00;;;;;20.77;57.55;101833.41;5058383;28;45400;-88
2021/08/13 05:01:47;;;;;;;;;8.00;6.00;;;;;20.81;57.25;101857.41;5058686;28;45335;-89
2021/08/13 05:04:12;;;;;;;;;8.00;6.00;;;;;20.78;57.42;101851.22;5057399;28;46604;-89
2021/08/13 05:06:38;;;;;;;;;6.00;6.00;;;;;20.75;57.28;101856.59;5056051;28;45648;-88
2021/08/13 05:09:03;;;;;;;;;6.00;6.00;;;;;20.76;57.14;101855.69;5058275;28;45542;-87
2021/08/13 05:11:29;;;;;;;;;5.67;5.33;;;;;20.68;57.12;101855.75;5059271;28;45443;-89
2021/08/13 05:13:54;;;;;;;;;8.33;7.67;;;;;20.59;57.52;101846.00;5056527;28;47028;-87
2021/08/13 05:16:19;;;;;;;;;9.33;7.00;;;;;20.61;57.46;101854.88;5057462;28;45458;-88
2021/08/13 05:18:45;;;;;;;;;8.00;8.00;;;;;20.63;57.54;101862.88;5056883;28;45353;-88
2021/08/13 05:21:10;;;;;;;;;5.33;5.33;;;;;20.67;57.66;101869.97;5056322;28;45738;-88
2021/08/13 05:23:36;;;;;;;;;5.67;5.67;;;;;20.73;57.46;101882.44;5057557;28;45411;-87
2021/08/13 05:26:01;;;;;;;;;7.00;6.00;;;;;20.71;57.80;101888.66;5057649;28;45390;-79
2021/08/13 05:28:27;;;;;;;;;7.33;6.33;;;;;20.69;57.41;101889.56;5056355;28;45311;-79
2021/08/13 05:30:52;;;;;;;;;8.00;6.00;;;;;20.71;57.76;101901.13;5055453;28;45262;-79
2021/08/13 05:33:18;;;;;;;;;9.67;6.67;;;;;20.71;58.02;101912.72;5056059;28;46343;-81
2021/08/13 05:35:43;;;;;;;;;7.67;7.00;;;;;20.72;57.77;101910.94;5055799;28;45557;-81
2021/08/13 05:38:09;;;;;;;;;8.00;5.67;;;;;20.71;57.63;101906.47;5055949;28;45384;-80
2021/08/13 05:40:35;;;;;;;;;5.67;5.67;;;;;20.71;57.77;101904.69;5056547;28;45356;-80
2021/08/13 05:43:00;;;;;;;;;6.00;6.00;;;;;20.72;57.94;101921.63;5055776;28;45259;-80
2021/08/13 05:45:27;;;;;;;;;9.33;7.67;;;;;20.73;58.06;101911.81;5055866;28;45238;-80
2021/08/13 05:47:52;;;;;;;;;7.33;5.67;;;;;20.71;58.05;101901.13;5055763;28;45356;-79
2021/08/13 05:50:17;;;;;;;;;8.67;6.33;;;;;20.75;57.93;101910.03;5056003;28;45373;-79
2021/08/13 05:52:44;;;;;;;;;7.00;6.33;;;;;20.75;57.91;101910.91;5055437;28;45998;-80
2021/08/13 05:55:10;;;;;;;;;5.33;5.33;;;;;20.75;57.60;101905.56;5055750;28;45327;-79
2021/08/13 05:57:36;;;;;;;;;8.00;6.67;;;;;20.73;57.62;101912.69;5055821;28;45429;-80
2021/08/13 06:00:01;;;;;;;;;5.33;5.33;;;;;20.81;57.51;101921.53;5058520;28;45432;-79
2021/08/13 06:02:27;;;;;;;;;9.00;6.00;;;;;20.86;57.83;101931.31;5058934;28;46135;-79
2021/08/13 06:04:56;;;;;;;;;6.00;5.67;;;;;20.88;57.72;101927.75;5058908;28;45347;-81
2021/08/13 06:07:21;;;;;;;;;6.00;5.00;;;;;20.90;57.69;101911.69;5058983;28;45251;-79
2021/08/13 06:09:47;;;;;;;;;8.00;6.67;;;;;20.91;57.91;101911.69;5059472;28;45442;-79
2021/08/13 06:12:12;;;;;;;;;7.00;7.00;;;;;20.88;57.65;101906.34;5059081;28;46232;-79
2021/08/13 06:14:37;;;;;;;;;6.00;5.67;;;;;20.93;57.93;101907.22;5058996;28;45356;-79
2021/08/13 06:17:03;;;;;;;;;9.00;8.33;;;;;20.93;57.66;101899.22;5059082;28;45889;-79
2021/08/13 06:19:29;;;;;;;;;6.67;5.67;;;;;20.94;57.90;101910.75;5058793;28;45374;-79
2021/08/13 06:21:54;;;;;;;;;7.33;7.00;;;;;20.93;57.65;101928.59;5058918;28;45989;-78
2021/08/13 06:24:20;;;;;;;;;8.33;6.33;;;;;20.96;57.61;101926.81;5058530;28;45382;-79
2021/08/13 06:26:45;;;;;;;;;9.00;6.00;;;;;20.97;57.65;101928.56;5059051;28;45374;-78
2021/08/13 06:29:10;;;;;;;;;9.00;7.33;;;;;20.98;57.76;101930.41;5059119;28;45401;-79
2021/08/13 06:31:36;;;;;;;;;5.67;5.67;;;;;20.96;57.43;101933.06;5058608;28;45988;-78
2021/08/13 06:34:01;;;;;;;;;8.00;6.67;;;;;20.98;57.89;101933.97;5058741;28;45346;-79
2021/08/13 06:36:27;;;;;;;;;6.00;6.00;;;;;21.00;57.52;101942.84;5058933;28;45417;-80
2021/08/13 06:38:52;;;;;;;;;7.67;6.33;;;;;21.00;57.39;101941.97;5058856;28;45361;-78
2021/08/13 06:41:17;;;;;;;;;5.33;5.33;;;;;20.99;58.00;101948.19;5058558;28;45314;-79
2021/08/13 06:43:43;;;;;;;;;6.33;6.33;;;;;21.02;58.18;101957.09;5058501;28;45215;-78
2021/08/13 06:46:08;;;;;;;;;7.33;6.33;;;;;21.02;58.08;101950.84;5061685;28;45681;-85
2021/08/13 06:48:34;;;;;;;;;5.00;5.00;;;;;21.02;58.05;101942.84;5061728;28;45206;-87
2021/08/13 06:50:59;;;;;;;;;5.33;5.33;;;;;21.05;58.08;101956.16;5061378;28;46062;-87
2021/08/13 06:53:24;;;;;;;;;10.00;5.00;;;;;21.08;57.30;101950.81;5061440;28;45219;-88
2021/08/13 06:55:50;;;;;;;;;5.00;5.00;;;;;21.05;57.45;101949.03;5060909;28;45323;-86
2021/08/13 06:58:15;;;;;;;;;5.00;5.00;;;;;21.05;57.27;101957.06;5061873;28;45498;-84
2021/08/13 07:00:41;;;;;;;;;7.00;6.00;;;;;21.11;57.36;101955.25;5060663;28;45325;-85
2021/08/13 07:03:06;;;;;;;;;6.00;5.00;;;;;21.05;57.38;101945.47;5061458;28;45394;-84
2021/08/13 07:05:32;;;;;;;;;4.67;4.67;;;;;21.10;57.62;101954.34;5061157;28;45442;-87
2021/08/13 07:07:57;;;;;;;;;5.33;5.00;;;;;21.13;57.55;101954.31;5059171;28;45462;-83
2021/08/13 07:10:23;;;;;;;;;4.67;4.33;;;;;21.13;57.07;101956.13;5060106;28;46429;-84
2021/08/13 07:12:48;;;;;;;;;6.00;3.00;;;;;21.16;56.72;101970.34;5060194;28;45322;-83
2021/08/13 07:15:14;;;;;;;;;7.67;4.67;;;;;21.14;56.49;101966.81;5060347;28;45549;-87
2021/08/13 07:17:39;;;;;;;;;4.33;3.00;;;;;21.10;56.28;101967.72;5060333;28;45397;-88
2021/08/13 07:20:07;;;;;;;;;5.67;4.00;;;;;21.14;56.93;101974.81;5060209;28;46109;-85
2021/08/13 07:22:32;;;;;;;;;7.00;5.00;;;;;21.16;56.64;101974.81;5060668;28;45324;-84
2021/08/13 07:24:58;;;;;;;;;3.33;3.33;;;;;21.20;56.63;101976.56;5060844;28;45536;-85
2021/08/13 07:27:24;;;;;;;;;2.00;2.00;;;;;21.20;56.82;101981.00;5060804;28;45468;-87
2021/08/13 07:29:50;;;;;;;;;3.33;3.33;;;;;21.22;56.46;101984.56;5060156;28;45425;-82
2021/08/13 07:32:15;;;;;;;;;8.33;4.33;;;;;21.24;56.77;101980.97;5060055;28;45347;-86
2021/08/13 07:34:40;;;;;;;;;5.00;2.33;;;;;21.27;56.15;101985.44;5059933;28;45792;-85
2021/08/13 07:37:06;;;;;;;;;4.67;4.00;;;;;21.30;56.62;102001.44;5060338;28;45226;-84
2021/08/13 07:39:31;;;;;;;;;7.00;5.00;;;;;21.31;56.44;101994.31;5057413;28;47927;-84
2021/08/13 07:41:57;;;;;;;;;3.67;3.67;;;;;21.35;56.68;102004.09;5059671;28;45190;-85
2021/08/13 07:44:23;;;;;;;;;7.00;5.67;;;;;21.36;57.79;102001.38;5060893;28;45469;-87
2021/08/13 07:46:48;;;;;;;;;6.33;5.00;;;;;21.39;59.15;102008.50;5060149;28;45573;-82
2021/08/13 07:49:13;;;;;;;;;6.33;4.67;;;;;21.36;58.99;102004.06;5060486;28;45590;-83
2021/08/13 07:51:40;;;;;;;;;4.33;4.00;;;;;21.44;58.46;102011.16;5060352;28;45278;-86
2021/08/13 07:54:06;;;;;;;;;7.67;6.00;;;;;21.45;58.28;102007.59;5061367;28;45401;-82
2021/08/13 07:56:31;;;;;;;;;6.33;5.67;;;;;21.47;57.63;102019.16;5062223;28;45261;-83
2021/08/13 07:58:56;;;;;;;;;5.00;4.00;;;;;21.40;58.37;102003.16;5062586;28;45989;-82
2021/08/13 08:01:22;;;;;;;;;5.00;5.00;;;;;21.50;58.50;102024.47;5064536;28;45259;-83
2021/08/13 08:03:47;;;;;;;;;8.33;5.67;;;;;21.49;57.71;102020.03;5060853;28;45259;-83
2021/08/13 08:06:13;;;;;;;;;5.33;5.33;;;;;21.49;57.70;102018.22;5059419;28;45428;-88
2021/08/13 08:08:38;;;;;;;;;4.00;4.00;;;;;21.56;57.05;102037.81;5059652;28;46449;-86
2021/08/13 08:11:03;;;;;;;;;7.00;3.00;;;;;21.60;57.44;102039.56;5059081;28;45287;-84
2021/08/13 08:13:29;;;;;;;;;6.67;6.00;;;;;21.58;57.01;102044.03;5058599;28;45327;-83
2021/08/13 08:15:54;;;;;;;;;5.67;4.00;;;;;21.63;56.64;102050.25;5058761;28;45414;-88
2021/08/13 08:18:20;;;;;;;;;7.00;5.00;;;;;21.67;57.56;102055.56;5059227;28;45436;-84
2021/08/13 08:20:46;;;;;;;;;5.67;5.00;;;;;21.63;58.45;102047.56;5059962;28;45505;-83
2021/08/13 08:23:11;;;;;;;;;7.00;7.00;;;;;21.72;57.35;102051.94;5059037;28;45374;-82
2021/08/13 08:25:38;;;;;;;;;4.67;4.33;;;;;21.82;57.64;102055.44;5061573;28;45797;-82
2021/08/13 08:28:04;;;;;;;;;8.33;6.33;;;;;21.90;56.77;102057.16;5060316;28;46352;-83
2021/08/13 08:30:31;;;;;;;;;9.00;7.33;;;;;21.98;57.69;102045.50;5060141;28;45413;-84
2021/08/13 08:32:56;;;;;;;;;8.67;7.00;;;;;22.08;57.37;102043.59;5060705;28;45401;-84
2021/08/13 08:35:22;;;;;;;;;10.67;7.33;;;;;22.23;58.10;102048.84;5059638;28;45474;-83
2021/08/13 08:37:58;;;;;;;;;7.67;6.00;;;;;22.31;57.70;102050.53;5059820;28;46153;-83
2021/08/13 08:40:27;;;;;;;;;7.67;7.00;;;;;22.40;58.04;102054.88;5059924;28;45222;-85
2021/08/13 08:42:58;;;;;;;;;10.00;7.00;;;;;22.53;57.43;102063.66;5058382;28;45359;-83
2021/08/13 08:45:28;;;;;;;;;11.00;9.00;;;;;22.70;57.74;102057.25;5057422;28;45440;-85
2021/08/13 08:47:57;;;;;;;;;9.67;6.67;;;;;22.92;56.25;102054.28;5057363;28;46487;-84
2021/08/13 08:50:24;;;;;;;;;7.67;4.00;;;;;23.20;55.17;102053.00;5056250;28;45386;-86
2021/08/13 08:52:51;;;;;;;;;5.00;5.00;;;;;23.47;55.78;102049.06;5058572;28;45413;-86
2021/08/13 08:55:17;;;;;;;;;5.33;5.00;;;;;23.80;55.73;102058.34;5058438;28;45283;-86
2021/08/13 08:57:44;;;;;;;;;11.33;8.00;;;;;24.14;54.80;102057.72;5057789;28;46382;-84
2021/08/13 09:00:10;;;;;;;;;11.67;7.33;;;;;24.42;55.40;102050.06;5058203;28;45334;-85
2021/08/13 09:02:36;;;;;;;;;6.33;5.00;;;;;24.78;54.49;102052.03;5058043;28;45393;-84
2021/08/13 09:05:02;;;;;;;;;4.67;4.00;;;;;25.07;52.12;102045.13;5057427;28;45489;-83
2021/08/13 09:07:28;;;;;;;;;3.33;3.33;;;;;25.32;52.00;102037.38;5058227;28;45321;-83
2021/08/13 09:09:54;;;;;;;;;8.33;6.00;;;;;25.63;51.81;102040.22;5058883;28;45310;-83
2021/08/13 09:12:21;;;;;;;;;8.00;7.33;;;;;25.89;50.19;102046.78;5058826;28;45312;-80
2021/08/13 09:14:46;;;;;;;;;5.67;5.00;;;;;26.12;51.37;102034.50;5058912;28;45251;-86
2021/08/13 09:17:11;;;;;;;;;8.67;6.33;;;;;26.30;51.18;102037.56;5057411;28;45404;-81
2021/08/13 09:19:48;;;;;;;;;7.00;5.67;;;;;26.57;50.77;102043.13;5057119;28;45456;-83
2021/08/13 09:22:17;;;;;;;;;4.67;4.67;;;;;26.89;49.63;102049.34;5058398;28;45431;-82
2021/08/13 09:24:45;;;;;;;;;4.00;4.00;;;;;27.13;49.20;102054.94;5059092;28;45306;-82
2021/08/13 09:27:16;;;;;;;;;5.33;4.67;;;;;27.47;48.27;102054.78;5060438;28;45392;-83
2021/08/13 09:30:10;;;;;;;;;5.67;4.00;;;;;27.77;46.73;102054.72;5058427;28;45449;-82
2021/08/13 09:32:36;;;;;;;;;2.67;2.67;;;;;28.04;46.52;102057.38;5060143;28;45441;-84
2021/08/13 09:35:06;;;;;;;;;4.33;4.00;;;;;28.28;45.40;102054.69;5061765;28;45299;-85
2021/08/13 09:37:34;;;;;;;;;3.00;3.00;;;;;28.53;45.10;102058.34;5062025;28;46343;-83
2021/08/13 09:40:00;;;;;;;;;7.33;6.00;;;;;28.76;44.83;102051.16;5062609;28;45389;-84
2021/08/13 09:42:36;;;;;;;;;5.67;4.33;;;;;28.97;44.65;102048.53;5061505;28;45319;-83
2021/08/13 09:45:11;;;;;;;;;6.33;4.00;;;;;29.13;44.17;102043.41;5061405;28;45314;-82
2021/08/13 09:47:42;;;;;;;;;8.00;4.33;;;;;29.28;43.25;102046.41;5060790;28;45942;-84
2021/08/13 09:50:10;;;;;;;;;5.00;3.67;;;;;29.47;42.67;102044.72;5062340;28;45397;-84
2021/08/13 09:52:36;;;;;;;;;6.67;4.00;;;;;29.66;41.26;102040.31;5062158;28;45481;-84
2021/08/13 09:55:15;;;;;;;;;4.00;4.00;;;;;29.80;41.92;102037.06;5061468;28;45318;-86
2021/08/13 09:57:43;;;;;;;;;4.00;4.00;;;;;29.97;42.20;102039.03;5061882;28;45292;-84
2021/08/13 10:00:10;;;;;;;;;4.33;3.33;;;;;30.20;42.07;102045.22;5061546;28;45429;-85
2021/08/13 10:02:38;;;;;;;;;6.00;4.67;;;;;30.46;42.01;102043.16;5061191;28;45445;-87
2021/08/13 10:05:25;;;;;;;;;5.00;3.33;;;;;30.67;40.79;102040.38;5061774;28;45347;-86
2021/08/13 10:07:54;;;;;;;;;6.33;3.67;;;;;30.89;41.19;102041.22;5060488;28;46155;-83
2021/08/13 10:10:25;;;;;;;;;4.00;4.00;;;;;31.04;39.42;102037.75;5061116;28;45425;-81
2021/08/13 10:12:50;;;;;;;;;4.33;3.33;;;;;31.16;39.58;102032.66;5060461;28;45641;-83
2021/08/13 10:15:45;;;;;;;;;5.33;4.00;;;;;31.36;39.99;102042.53;5061074;28;45450;-83
2021/08/13 10:18:13;;;;;;;;;6.00;5.00;;;;;31.50;37.63;102038.22;5060823;28;45433;-85
2021/08/13 10:20:44;;;;;;;;;5.00;5.00;;;;;31.62;38.53;102040.31;5060505;28;45350;-85
2021/08/13 10:23:11;;;;;;;;;4.00;4.00;;;;;31.72;37.92;102026.25;5060916;28;45338;-85
2021/08/13 10:25:37;;;;;;;;;6.33;5.67;;;;;31.89;37.69;102036.25;5060924;28;45161;-85
2021/08/13 10:28:03;;;;;;;;;2.00;1.33;;;;;32.04;37.31;102044.53;5060686;28;45509;-85
2021/08/13 10:30:29;;;;;;;;;9.67;7.33;;;;;32.22;37.95;102038.13;5060300;28;45435;-87
2021/08/13 10:32:57;;;;;;;;;10.00;9.33;;;;;32.37;37.90;102040.97;5060642;28;45925;-84
2021/08/13 10:35:39;;;;;;;;;5.33;5.00;;;;;32.48;36.14;102037.66;5060867;28;45328;-84
2021/08/13 10:38:08;;;;;;;;;4.67;4.33;;;;;32.51;37.53;102032.00;5060851;28;45998;-87
2021/08/13 10:40:33;;;;;;;;;6.67;6.00;;;;;32.64;37.43;102043.13;5061923;28;45238;-84
2021/08/13 10:43:01;;;;;;;;;8.00;8.00;;;;;32.78;36.78;102045.09;5061539;28;45306;-86
2021/08/13 10:45:31;;;;;;;;;7.67;7.33;;;;;32.93;36.99;102046.03;5067181;28;45293;-85
2021/08/13 10:48:14;;;;;;;;;5.00;5.00;;;;;33.13;37.47;102044.00;5070859;28;46327;-86
2021/08/13 10:50:41;;;;;;;;;7.33;6.33;;;;;33.26;36.12;102040.56;5072213;28;45386;-86
2021/08/13 10:53:32;;;;;;;;;7.67;7.67;;;;;33.35;36.38;102045.50;5067211;28;45358;-82
2021/08/13 10:56:00;;;;;;;;;7.00;7.00;;;;;33.45;35.57;102040.34;5068594;28;45425;-85
2021/08/13 10:58:41;;;;;;;;;7.33;4.67;;;;;33.59;36.02;102042.22;5067108;28;46311;-83
2021/08/13 11:01:12;;;;;;;;;7.00;6.67;;;;;33.66;35.46;102039.13;5069160;28;45256;-86
2021/08/13 11:03:40;;;;;;;;;7.67;7.00;;;;;33.74;34.24;102037.72;5068984;28;45403;-86
2021/08/13 11:06:06;;;;;;;;;8.00;7.67;;;;;33.78;35.75;102032.09;5068000;28;45290;-85
2021/08/13 11:08:41;;;;;;;;;7.00;7.00;;;;;33.88;34.49;102029.66;5068360;28;45450;-82
2021/08/13 11:11:07;;;;;;;;;8.33;7.00;;;;;33.90;34.85;102025.00;5066661;28;45164;-83
2021/08/13 11:13:38;;;;;;;;;6.33;5.67;;;;;33.99;35.15;102034.47;5066931;28;45444;-83
2021/08/13 11:16:29;;;;;;;;;7.00;6.00;;;;;33.99;34.21;102029.88;5065996;28;45262;-84
2021/08/13 11:18:56;;;;;;;;;7.67;6.00;;;;;33.99;34.05;102024.44;5058409;28;46320;-85
2021/08/13 11:21:49;;;;;;;;;7.00;7.00;;;;;33.97;34.38;102020.94;5058630;28;45382;-86
2021/08/13 11:24:22;;;;;;;;;9.67;8.00;;;;;34.10;34.89;102036.53;5059097;28;45370;-85